createdAt,value
2023-02-17T00:01:33.482Z,5.90
2023-02-17T00:04:01.555Z,6.38
2023-02-17T00:06:32.292Z,7.03
2023-02-17T00:09:02.035Z,6.38
2023-02-17T00:11:30.219Z,6.20
2023-02-17T00:13:57.815Z,6.45
2023-02-17T00:16:27.749Z,7.30
2023-02-17T00:18:58.334Z,6.82
2023-02-17T00:21:29.265Z,7.90
2023-02-17T00:23:58.430Z,8.27
2023-02-17T00:26:26.103Z,7.93
2023-02-17T00:28:53.686Z,8.50
2023-02-17T00:31:25.272Z,7.10
2023-02-17T00:33:55.856Z,7.80
2023-02-17T00:36:25.067Z,6.82
2023-02-17T00:38:55.739Z,7.18
2023-02-17T00:41:25.118Z,6.43
2023-02-17T00:43:52.702Z,6.45
2023-02-17T00:46:21.055Z,6.38
2023-02-17T00:48:49.573Z,7.43
2023-02-17T00:51:17.817Z,7.70
2023-02-17T00:53:46.576Z,7.75
2023-02-17T00:56:14.894Z,7.60
2023-02-17T00:58:42.842Z,7.50
2023-02-17T01:01:12.194Z,8.10
2023-02-17T01:03:42.465Z,8.20
2023-02-17T01:08:51.485Z,7.57
2023-02-17T01:11:21.406Z,6.93
2023-02-17T01:13:49.336Z,7.68
2023-02-17T01:16:30.249Z,7.70
2023-02-17T01:19:00.055Z,7.13
2023-02-17T01:21:29.269Z,7.40
2023-02-17T01:23:59.252Z,7.50
2023-02-17T01:26:28.563Z,8.00
2023-02-17T01:28:57.230Z,7.72
2023-02-17T01:31:29.345Z,15.30
2023-02-17T01:33:58.864Z,12.18
2023-02-17T01:36:27.429Z,10.85
2023-02-17T01:38:55.456Z,12.73
2023-02-17T01:41:28.749Z,9.73
2023-02-17T01:44:18.373Z,9.38
2023-02-17T01:49:24.736Z,8.88
2023-02-17T01:52:06.945Z,9.70
2023-02-17T01:54:49.220Z,9.25
2023-02-17T01:57:20.185Z,11.00
2023-02-17T01:59:48.715Z,10.50
2023-02-17T02:02:16.991Z,11.03
2023-02-17T02:04:52.141Z,11.13
2023-02-17T02:07:28.872Z,10.07
2023-02-17T02:09:58.377Z,10.65
2023-02-17T02:12:28.793Z,10.38
2023-02-17T02:15:00.232Z,10.20
2023-02-17T02:17:36.596Z,10.63
2023-02-17T02:20:38.688Z,10.38
2023-02-17T02:23:17.167Z,10.95
2023-02-17T02:26:12.728Z,10.25
2023-02-17T02:29:01.026Z,10.10
2023-02-17T02:31:41.167Z,10.48
2023-02-17T02:34:23.971Z,9.90
2023-02-17T02:37:09.379Z,9.80
2023-02-17T02:39:43.020Z,9.20
2023-02-17T02:42:14.926Z,9.30
2023-02-17T02:44:42.853Z,9.80
2023-02-17T02:47:39.598Z,8.65
2023-02-17T02:50:11.827Z,9.00
2023-02-17T02:52:53.272Z,9.77
2023-02-17T02:56:05.835Z,10.32
2023-02-17T02:59:01.308Z,8.88
2023-02-17T03:02:09.149Z,8.93
2023-02-17T03:04:39.023Z,8.88
2023-02-17T03:07:21.285Z,8.95
2023-02-17T03:09:52.938Z,8.13
2023-02-17T03:12:21.991Z,7.60
2023-02-17T03:14:54.916Z,8.40
2023-02-17T03:17:31.803Z,7.68
2023-02-17T03:20:03.630Z,9.35
2023-02-17T03:22:38.172Z,8.07
2023-02-17T03:25:06.753Z,8.85
2023-02-17T03:27:34.676Z,8.38
2023-02-17T03:30:03.730Z,8.25
2023-02-17T03:32:31.639Z,8.00
2023-02-17T03:34:59.360Z,7.97
2023-02-17T03:37:26.936Z,7.55
2023-02-17T03:39:54.493Z,8.50
2023-02-17T03:42:22.086Z,8.43
2023-02-17T03:44:49.565Z,11.98
2023-02-17T03:47:20.009Z,11.10
2023-02-17T03:49:47.553Z,11.23
2023-02-17T03:52:15.289Z,7.65
2023-02-17T03:54:42.866Z,7.57
2023-02-17T03:57:10.886Z,8.88
2023-02-17T03:59:38.576Z,8.43
2023-02-17T04:02:09.291Z,7.80
2023-02-17T04:04:37.004Z,6.82
2023-02-17T04:07:06.368Z,6.78
2023-02-17T04:09:34.624Z,6.03
2023-02-17T04:12:02.222Z,5.25
2023-02-17T04:14:30.002Z,5.53
2023-02-17T04:16:59.804Z,5.53
2023-02-17T04:19:27.784Z,5.78
2023-02-17T04:21:56.231Z,6.80
2023-02-17T04:24:23.900Z,5.00
2023-02-17T04:26:52.984Z,5.55
2023-02-17T04:29:20.618Z,5.97
2023-02-17T04:31:48.519Z,6.55
2023-02-17T04:34:16.199Z,6.10
2023-02-17T04:36:44.426Z,7.90
2023-02-17T04:39:12.828Z,7.07
2023-02-17T04:41:40.451Z,6.93
2023-02-17T04:44:08.004Z,7.20
2023-02-17T04:46:35.828Z,7.93
2023-02-17T04:51:32.824Z,8.63
2023-02-17T04:54:00.453Z,8.82
2023-02-17T04:56:28.050Z,10.13
2023-02-17T04:58:55.534Z,10.82
2023-02-17T05:01:23.413Z,9.15
2023-02-17T05:03:50.962Z,7.28
2023-02-17T05:06:18.806Z,7.15
2023-02-17T05:08:48.342Z,7.32
2023-02-17T05:11:16.778Z,8.40
2023-02-17T05:13:44.740Z,7.75
2023-02-17T05:16:12.383Z,7.30
2023-02-17T05:18:40.753Z,6.72
2023-02-17T05:21:08.319Z,7.18
2023-02-17T05:23:41.255Z,7.25
2023-02-17T05:26:09.641Z,6.22
2023-02-17T05:28:37.672Z,7.28
2023-02-17T05:31:05.255Z,6.10
2023-02-17T05:33:33.192Z,7.03
2023-02-17T05:36:07.313Z,6.28
2023-02-17T05:38:37.565Z,6.07
2023-02-17T05:41:05.872Z,5.63
2023-02-17T05:43:33.766Z,5.33
2023-02-17T05:46:06.128Z,5.00
2023-02-17T05:48:34.769Z,5.60
2023-02-17T05:51:03.010Z,5.47
2023-02-17T05:53:31.646Z,4.47
2023-02-17T05:55:59.505Z,4.20
2023-02-17T05:58:27.524Z,4.40
2023-02-17T06:00:55.191Z,4.50
2023-02-17T06:03:22.743Z,5.32
2023-02-17T06:05:50.496Z,5.07
2023-02-17T06:08:18.212Z,3.95
2023-02-17T06:10:46.992Z,4.78
2023-02-17T06:13:15.319Z,4.60
2023-02-17T06:15:43.008Z,5.20
2023-02-17T06:18:10.580Z,4.25
2023-02-17T06:20:39.058Z,4.80
2023-02-17T06:23:06.752Z,5.50
2023-02-17T06:25:34.970Z,4.97
2023-02-17T06:28:02.686Z,4.82
2023-02-17T06:30:31.676Z,4.80
2023-02-17T06:32:59.741Z,5.00
2023-02-17T06:35:27.427Z,4.30
2023-02-17T06:37:55.196Z,4.32
2023-02-17T06:40:23.297Z,4.35
2023-02-17T06:42:53.801Z,5.05
2023-02-17T06:45:22.214Z,4.88
2023-02-17T06:47:49.936Z,5.13
2023-02-17T06:50:18.613Z,5.57
2023-02-17T06:52:46.421Z,5.70
2023-02-17T06:55:14.033Z,5.90
2023-02-17T06:57:42.369Z,5.53
2023-02-17T07:00:10.623Z,5.40
2023-02-17T07:02:39.655Z,6.15
2023-02-17T07:05:08.589Z,6.32
2023-02-17T07:07:37.186Z,6.80
2023-02-17T07:10:05.632Z,6.70
2023-02-17T07:12:39.094Z,6.25
2023-02-17T07:15:09.454Z,7.05
2023-02-17T07:17:39.672Z,6.70
2023-02-17T07:20:08.194Z,6.47
2023-02-17T07:22:36.317Z,7.10
2023-02-17T07:25:08.238Z,7.45
2023-02-17T07:27:37.085Z,6.20
2023-02-17T07:30:06.549Z,5.95
2023-02-17T07:32:35.656Z,6.63
2023-02-17T07:35:03.520Z,6.70
2023-02-17T07:37:31.240Z,6.22
2023-02-17T07:39:59.137Z,6.53
2023-02-17T07:42:29.777Z,5.38
2023-02-17T07:44:57.361Z,5.13
2023-02-17T07:47:28.865Z,7.95
2023-02-17T07:49:56.984Z,5.93
2023-02-17T07:52:24.565Z,5.05
2023-02-17T07:54:52.216Z,4.88
2023-02-17T07:57:19.803Z,4.10
2023-02-17T07:59:48.229Z,4.53
2023-02-17T08:02:17.102Z,4.53
2023-02-17T08:04:44.769Z,3.45
2023-02-17T08:07:12.351Z,4.07
2023-02-17T08:09:58.488Z,4.00
2023-02-17T08:12:44.604Z,4.20
2023-02-17T08:15:13.264Z,3.70
2023-02-17T08:17:41.570Z,3.92
2023-02-17T08:20:09.802Z,3.63
2023-02-17T08:22:39.782Z,3.88
2023-02-17T08:25:08.273Z,4.35
2023-02-17T08:27:36.011Z,4.72
2023-02-17T08:30:08.028Z,5.10
2023-02-17T08:32:35.739Z,4.90
2023-02-17T08:35:03.580Z,5.18
2023-02-17T08:37:32.312Z,5.00
2023-02-17T08:40:00.423Z,5.07
2023-02-17T08:42:28.727Z,4.22
2023-02-17T08:44:57.037Z,5.65
2023-02-17T08:47:24.739Z,5.10
2023-02-17T08:49:53.430Z,5.63
2023-02-17T08:52:20.917Z,5.90
2023-02-17T08:54:52.720Z,4.90
2023-02-17T08:57:21.606Z,5.85
2023-02-17T08:59:49.960Z,4.97
2023-02-17T09:02:17.672Z,4.53
2023-02-17T09:04:45.951Z,5.22
2023-02-17T09:07:15.304Z,5.90
2023-02-17T09:09:43.137Z,6.50
2023-02-17T09:12:10.900Z,5.63
2023-02-17T09:17:08.552Z,6.65
2023-02-17T09:19:39.246Z,6.27
2023-02-17T09:22:07.723Z,6.97
2023-02-17T09:24:38.882Z,6.75
2023-02-17T09:27:06.798Z,6.30
2023-02-17T09:29:34.636Z,5.90
2023-02-17T09:32:03.178Z,5.80
2023-02-17T09:34:30.900Z,6.07
2023-02-17T09:36:58.487Z,6.20
2023-02-17T09:39:26.668Z,6.60
2023-02-17T09:41:56.673Z,5.82
2023-02-17T09:44:39.185Z,4.15
2023-02-17T09:47:27.184Z,4.57
2023-02-17T09:50:00.854Z,4.10
2023-02-17T09:52:31.989Z,3.85
2023-02-17T09:55:18.431Z,3.72
2023-02-17T09:57:52.185Z,3.22
2023-02-17T10:00:26.205Z,3.80
2023-02-17T10:03:04.885Z,3.70
2023-02-17T10:05:40.749Z,3.72
2023-02-17T10:08:21.282Z,3.60
2023-02-17T10:11:21.536Z,3.17
2023-02-17T10:13:55.960Z,3.72
2023-02-17T10:16:34.517Z,3.50
2023-02-17T10:19:28.316Z,3.63
2023-02-17T10:22:07.905Z,2.83
2023-02-17T10:27:11.843Z,3.03
2023-02-17T10:29:51.662Z,3.55
2023-02-17T10:32:29.430Z,3.55
2023-02-17T10:35:20.986Z,3.53
2023-02-17T10:37:54.907Z,3.03
2023-02-17T10:40:27.586Z,3.17
2023-02-17T10:43:01.121Z,3.30
2023-02-17T10:45:37.656Z,3.95
2023-02-17T10:48:14.696Z,3.78
2023-02-17T10:50:44.449Z,3.03
2023-02-17T10:53:22.785Z,2.60
2023-02-17T10:55:54.644Z,2.70
2023-02-17T10:58:42.104Z,2.78
2023-02-17T11:01:10.542Z,2.83
2023-02-17T11:03:43.614Z,3.50
2023-02-17T11:06:22.529Z,2.67
2023-02-17T11:08:51.958Z,3.22
2023-02-17T11:11:26.798Z,3.05
2023-02-17T11:14:06.261Z,3.47
2023-02-17T11:16:39.204Z,3.33
2023-02-17T11:19:38.752Z,3.13
2023-02-17T11:22:34.142Z,3.25
2023-02-17T11:25:06.632Z,3.28
2023-02-17T11:27:35.232Z,3.35
2023-02-17T11:30:11.005Z,2.90
2023-02-17T11:32:39.437Z,3.50
2023-02-17T11:35:22.613Z,2.90
2023-02-17T11:37:50.413Z,2.92
2023-02-17T11:40:26.790Z,2.88
2023-02-17T11:42:59.534Z,3.40
2023-02-17T11:46:02.484Z,3.63
2023-02-17T11:48:51.898Z,3.30
2023-02-17T11:54:05.321Z,3.38
2023-02-17T11:56:46.910Z,3.20
2023-02-17T11:59:30.538Z,3.85
2023-02-17T12:02:15.260Z,4.15
2023-02-17T12:05:13.575Z,3.65
2023-02-17T12:07:59.560Z,3.97
2023-02-17T12:11:00.126Z,4.13
2023-02-17T12:13:31.884Z,4.10
2023-02-17T12:16:09.363Z,3.45
2023-02-17T12:18:43.373Z,3.67
2023-02-17T12:21:10.930Z,3.78
2023-02-17T12:23:59.836Z,3.78
2023-02-17T12:26:39.989Z,3.80
2023-02-17T12:29:26.069Z,3.78
2023-02-17T12:32:09.241Z,3.60
2023-02-17T12:34:45.130Z,3.60
2023-02-17T12:37:48.377Z,4.53
2023-02-17T12:40:25.411Z,4.07
2023-02-17T12:42:57.957Z,3.97
2023-02-17T12:45:37.268Z,4.13
2023-02-17T12:48:13.637Z,4.32
2023-02-17T12:51:00.464Z,3.90
2023-02-17T12:53:44.154Z,4.50
2023-02-17T12:56:51.328Z,4.63
2023-02-17T12:59:30.328Z,4.80
2023-02-17T13:02:06.894Z,5.07
2023-02-17T13:04:35.773Z,5.07
2023-02-17T13:07:21.400Z,4.60
2023-02-17T13:09:50.887Z,5.03
2023-02-17T13:12:24.446Z,5.13
2023-02-17T13:14:56.060Z,4.97
2023-02-17T13:17:34.472Z,4.82
2023-02-17T13:20:11.346Z,4.55
2023-02-17T13:22:40.498Z,4.60
2023-02-17T13:25:12.957Z,5.13
2023-02-17T13:27:41.350Z,4.32
2023-02-17T13:30:17.752Z,4.88
2023-02-17T13:32:45.821Z,4.95
2023-02-17T13:35:13.641Z,5.35
2023-02-17T13:37:44.372Z,4.85
2023-02-17T13:40:12.842Z,4.38
2023-02-17T13:42:44.395Z,4.47
2023-02-17T13:45:27.086Z,4.88
2023-02-17T13:47:57.649Z,4.95
2023-02-17T13:50:38.223Z,4.85
2023-02-17T13:53:26.622Z,5.50
2023-02-17T13:55:57.583Z,5.20
2023-02-17T13:58:28.951Z,5.25
2023-02-17T14:01:00.828Z,5.07
2023-02-17T14:03:29.915Z,4.50
2023-02-17T14:05:59.806Z,4.53
2023-02-17T14:08:39.173Z,4.95
2023-02-17T14:11:14.132Z,4.88
2023-02-17T14:13:45.916Z,4.82
2023-02-17T14:16:36.876Z,5.15
2023-02-17T14:19:09.138Z,4.32
2023-02-17T14:21:40.063Z,5.07
2023-02-17T14:24:09.786Z,5.40
2023-02-17T14:26:45.220Z,5.07
2023-02-17T14:29:14.036Z,4.85
2023-02-17T14:31:47.951Z,5.30
2023-02-17T14:34:34.135Z,4.80
2023-02-17T14:37:09.035Z,4.85
2023-02-17T14:39:37.742Z,4.90
2023-02-17T14:42:06.295Z,4.63
2023-02-17T14:44:34.968Z,4.90
2023-02-17T14:47:02.932Z,4.35
2023-02-17T14:49:30.545Z,4.88
2023-02-17T14:51:58.231Z,4.72
2023-02-17T14:54:27.086Z,5.00
2023-02-17T14:57:26.899Z,4.70
2023-02-17T14:59:57.729Z,4.55
2023-02-17T15:02:25.678Z,4.97
2023-02-17T15:04:53.499Z,4.40
2023-02-17T15:07:21.159Z,4.88
2023-02-17T15:09:49.661Z,5.32
2023-02-17T15:12:21.922Z,5.07
2023-02-17T15:14:49.649Z,5.00
2023-02-17T15:17:17.236Z,5.57
2023-02-17T15:19:45.129Z,5.55
2023-02-17T15:22:16.638Z,4.88
2023-02-17T15:24:50.782Z,5.07
2023-02-17T15:27:19.476Z,5.10
2023-02-17T15:29:48.183Z,5.72
2023-02-17T15:32:20.005Z,5.18
2023-02-17T15:34:47.735Z,5.10
2023-02-17T15:37:15.475Z,5.07
2023-02-17T15:39:43.229Z,5.38
2023-02-17T15:42:13.849Z,4.68
2023-02-17T15:44:46.932Z,4.35
2023-02-17T15:47:20.039Z,4.65
2023-02-17T15:49:48.215Z,4.63
2023-02-17T15:52:16.198Z,5.07
2023-02-17T15:54:44.166Z,4.55
2023-02-17T15:57:24.061Z,5.15
2023-02-17T15:59:55.296Z,5.25
2023-02-17T16:02:25.640Z,4.95
2023-02-17T16:04:54.366Z,5.03
2023-02-17T16:07:23.241Z,5.20
2023-02-17T16:09:50.829Z,5.20
2023-02-17T16:12:27.073Z,5.60
2023-02-17T16:14:57.021Z,4.60
2023-02-17T16:17:29.142Z,4.93
2023-02-17T16:19:57.757Z,5.22
2023-02-17T16:22:25.521Z,4.90
2023-02-17T16:25:14.294Z,4.95
2023-02-17T16:27:44.384Z,4.95
2023-02-17T16:30:20.003Z,6.03
2023-02-17T16:32:52.469Z,5.22
2023-02-17T16:35:22.933Z,5.10
2023-02-17T16:38:14.296Z,6.20
2023-02-17T16:40:53.312Z,6.57
2023-02-17T16:43:24.276Z,6.80
2023-02-17T16:45:57.962Z,6.50
2023-02-17T16:48:28.462Z,6.25
2023-02-17T16:50:56.881Z,6.70
2023-02-17T16:53:25.970Z,7.95
2023-02-17T16:55:55.921Z,6.65
2023-02-17T16:58:25.554Z,6.88
2023-02-17T17:00:56.016Z,8.00
2023-02-17T17:03:23.884Z,8.07
2023-02-17T17:05:53.027Z,8.10
2023-02-17T17:08:22.193Z,8.00
2023-02-17T17:10:53.496Z,7.85
2023-02-17T17:13:23.725Z,7.07
2023-02-17T17:15:51.696Z,7.28
2023-02-17T17:18:21.402Z,7.68
2023-02-17T17:20:49.857Z,7.38
2023-02-17T17:23:20.245Z,6.65
2023-02-17T17:25:48.664Z,6.95
2023-02-17T17:28:20.107Z,7.15
2023-02-17T17:33:16.438Z,6.82
2023-02-17T17:35:44.023Z,7.00
2023-02-17T17:38:19.575Z,7.03
2023-02-17T17:40:55.800Z,6.93
2023-02-17T17:43:24.493Z,7.60
2023-02-17T17:45:54.967Z,6.65
2023-02-17T17:48:22.559Z,7.15
2023-02-17T17:50:50.517Z,7.63
2023-02-17T17:53:18.684Z,6.95
2023-02-17T17:55:48.260Z,7.13
2023-02-17T17:58:17.283Z,6.95
2023-02-17T18:00:50.636Z,7.38
2023-02-17T18:03:18.922Z,7.15
2023-02-17T18:05:46.589Z,7.25
2023-02-17T18:08:15.597Z,6.93
2023-02-17T18:10:43.541Z,7.07
2023-02-17T18:13:16.695Z,7.00
2023-02-17T18:15:44.933Z,6.63
2023-02-17T18:18:13.730Z,6.93
2023-02-17T18:20:41.449Z,6.95
2023-02-17T18:23:09.002Z,6.75
2023-02-17T18:25:37.841Z,6.75
2023-02-17T18:28:05.910Z,5.80
2023-02-17T18:30:34.055Z,6.30
2023-02-17T18:33:02.723Z,6.95
2023-02-17T18:35:33.461Z,6.55
2023-02-17T18:38:01.151Z,7.43
2023-02-17T18:40:29.548Z,7.97
2023-02-17T18:42:57.456Z,8.00
2023-02-17T18:45:26.275Z,7.93
2023-02-17T18:47:54.094Z,7.70
2023-02-17T18:50:22.091Z,7.88
2023-02-17T18:52:49.606Z,8.23
2023-02-17T18:55:17.499Z,8.02
2023-02-17T18:57:46.746Z,9.18
2023-02-17T19:00:16.737Z,8.48
2023-02-17T19:02:46.118Z,7.93
2023-02-17T19:05:13.922Z,9.05
2023-02-17T19:07:46.702Z,9.02
2023-02-17T19:10:15.609Z,8.85
2023-02-17T19:12:43.175Z,7.90
2023-02-17T19:15:14.091Z,8.32
2023-02-17T19:17:42.446Z,7.57
2023-02-17T19:20:10.981Z,7.32
2023-02-17T19:22:38.854Z,7.97
2023-02-17T19:25:08.332Z,7.72
2023-02-17T19:27:39.704Z,7.43
2023-02-17T19:30:10.052Z,7.88
2023-02-17T19:32:37.791Z,7.82
2023-02-17T19:35:06.783Z,7.82
2023-02-17T19:37:39.591Z,8.25
2023-02-17T19:40:08.016Z,8.25
2023-02-17T19:42:36.563Z,8.30
2023-02-17T19:45:04.574Z,7.57
2023-02-17T19:47:32.286Z,8.60
2023-02-17T19:50:01.306Z,8.05
2023-02-17T19:52:31.329Z,8.75
2023-02-17T19:54:59.764Z,8.90
2023-02-17T19:57:27.820Z,9.18
2023-02-17T19:59:55.450Z,8.73
2023-02-17T20:02:23.111Z,9.88
2023-02-17T20:04:52.879Z,9.48
2023-02-17T20:07:20.606Z,8.68
2023-02-17T20:09:51.423Z,9.80
2023-02-17T20:12:19.224Z,9.85
2023-02-17T20:14:46.872Z,9.20
2023-02-17T20:17:16.784Z,9.63
2023-02-17T20:19:44.512Z,10.48
2023-02-17T20:22:12.163Z,9.88
2023-02-17T20:24:42.091Z,11.02
2023-02-17T20:27:10.152Z,10.20
2023-02-17T20:29:38.231Z,10.57
2023-02-17T20:32:06.872Z,10.88
2023-02-17T20:34:40.931Z,11.38
2023-02-17T20:37:11.679Z,11.85
2023-02-17T20:39:41.182Z,11.18
2023-02-17T20:42:09.214Z,11.05
2023-02-17T20:44:37.005Z,11.88
2023-02-17T20:47:04.972Z,11.68
2023-02-17T20:49:32.792Z,12.52
2023-02-17T20:52:00.438Z,12.18
2023-02-17T20:54:28.029Z,11.15
2023-02-17T20:56:57.953Z,11.82
2023-02-17T20:59:25.712Z,11.20
2023-02-17T21:01:56.114Z,9.95
2023-02-17T21:04:23.719Z,11.10
2023-02-17T21:06:52.152Z,11.30
2023-02-17T21:09:20.714Z,11.50
2023-02-17T21:11:48.959Z,11.00
2023-02-17T21:14:16.575Z,11.43
2023-02-17T21:16:45.132Z,10.52
2023-02-17T21:19:13.158Z,10.77
2023-02-17T21:21:43.124Z,10.95
2023-02-17T21:24:12.074Z,11.18
2023-02-17T21:26:40.262Z,10.77
2023-02-17T21:29:08.176Z,11.02
2023-02-17T21:31:37.108Z,11.57
2023-02-17T21:34:05.549Z,11.30
2023-02-17T21:36:33.669Z,11.65
2023-02-17T21:39:01.562Z,10.93
2023-02-17T21:41:31.914Z,12.77
2023-02-17T21:44:18.874Z,23.40
2023-02-17T21:46:46.647Z,13.25
2023-02-17T21:49:14.640Z,11.52
2023-02-17T21:51:42.513Z,11.20
2023-02-17T21:54:13.445Z,10.63
2023-02-17T21:56:41.305Z,11.07
2023-02-17T21:59:09.342Z,11.38
2023-02-17T22:01:36.947Z,11.43
2023-02-17T22:04:05.040Z,23.73
2023-02-17T22:06:36.114Z,13.18
2023-02-17T22:09:06.988Z,14.57
2023-02-17T22:11:39.565Z,11.10
2023-02-17T22:14:11.631Z,11.45
2023-02-17T22:16:39.771Z,12.30
2023-02-17T22:19:09.198Z,12.57
2023-02-17T22:21:38.504Z,11.80
2023-02-17T22:24:06.274Z,11.98
2023-02-17T22:26:34.493Z,13.27
2023-02-17T22:29:02.013Z,13.05
2023-02-17T22:31:31.387Z,12.45
2023-02-17T22:34:03.392Z,12.85
2023-02-17T22:36:33.260Z,12.18
2023-02-17T22:41:29.024Z,13.68
2023-02-17T22:43:56.793Z,13.25
2023-02-17T22:46:27.182Z,13.05
2023-02-17T22:48:57.423Z,13.05
2023-02-17T22:51:32.102Z,13.68
2023-02-17T22:54:01.128Z,12.50
2023-02-17T22:56:30.086Z,13.95
2023-02-17T22:59:00.980Z,13.05
2023-02-17T23:01:30.454Z,13.32
2023-02-17T23:03:59.114Z,12.85
2023-02-17T23:06:32.779Z,13.70
2023-02-17T23:09:02.356Z,15.13
2023-02-17T23:11:51.396Z,13.70
2023-02-17T23:14:37.048Z,14.10
2023-02-17T23:17:10.170Z,14.85
2023-02-17T23:19:39.126Z,14.70
2023-02-17T23:22:15.909Z,15.25
2023-02-17T23:24:44.715Z,14.52
2023-02-17T23:27:13.203Z,14.90
2023-02-17T23:29:41.669Z,15.27
2023-02-17T23:32:09.598Z,15.02
2023-02-17T23:34:38.230Z,15.65
2023-02-17T23:37:05.990Z,16.10
2023-02-17T23:39:37.933Z,15.98
2023-02-17T23:42:08.367Z,15.57
2023-02-17T23:44:36.160Z,16.85
2023-02-17T23:47:03.863Z,18.17
2023-02-17T23:49:32.190Z,18.27
2023-02-17T23:52:00.014Z,17.83
2023-02-17T23:54:27.679Z,18.73
2023-02-17T23:56:55.196Z,17.63
2023-02-17T23:59:22.732Z,15.93
